createdAt,value
2018-04-27T00:00:18.459Z,13.68
2018-04-27T00:01:18.751Z,13.68
2018-04-27T00:02:18.766Z,13.68
2018-04-27T00:03:19.080Z,13.68
2018-04-27T00:04:19.078Z,13.65
2018-04-27T00:05:19.111Z,13.71
2018-04-27T00:06:19.135Z,13.65
2018-04-27T00:07:19.145Z,13.59
2018-04-27T00:08:18.890Z,13.67
2018-04-27T00:09:18.907Z,13.65
2018-04-27T00:10:19.201Z,13.63
2018-04-27T00:11:19.229Z,13.6
2018-04-27T00:12:19.252Z,13.6
2018-04-27T00:13:19.247Z,13.56
2018-04-27T00:14:19.293Z,13.54
2018-04-27T00:15:19.005Z,13.54
2018-04-27T00:16:19.022Z,13.56
2018-04-27T00:17:19.315Z,13.56
2018-04-27T00:18:19.036Z,13.54
2018-04-27T00:19:19.369Z,13.52
2018-04-27T00:20:19.364Z,13.5
2018-04-27T00:21:19.388Z,13.38
2018-04-27T00:22:19.462Z,13.47
2018-04-27T00:23:19.432Z,13.47
2018-04-27T00:24:19.457Z,13.38
2018-04-27T00:25:18.888Z,13.41
2018-04-27T00:26:19.192Z,13.41
2018-04-27T00:27:19.519Z,13.31
2018-04-27T00:28:19.519Z,13.37
2018-04-27T00:29:19.249Z,13.35
2018-04-27T00:30:19.552Z,13.37
2018-04-27T00:31:19.582Z,13.33
2018-04-27T00:32:19.636Z,13.35
2018-04-27T00:33:19.303Z,13.33
2018-04-27T00:34:19.745Z,13.31
2018-04-27T00:35:19.635Z,13.33
2018-04-27T00:36:19.669Z,13.23
2018-04-27T00:37:19.675Z,13.33
2018-04-27T00:38:19.684Z,13.22
2018-04-27T00:39:19.714Z,13.23
2018-04-27T00:40:19.452Z,13.19
2018-04-27T00:41:19.472Z,13.22
2018-04-27T00:42:19.549Z,13.22
2018-04-27T00:43:19.511Z,13.18
2018-04-27T00:44:19.509Z,13.19
2018-04-27T00:45:19.520Z,13.28
2018-04-27T00:46:19.890Z,13.23
2018-04-27T00:47:19.862Z,13.19
2018-04-27T00:48:19.881Z,13.13
2018-04-27T00:49:19.597Z,13.2
2018-04-27T00:50:19.627Z,13.15
2018-04-27T00:51:19.632Z,13.15
2018-04-27T00:52:19.969Z,13.22
2018-04-27T00:53:19.961Z,13.15
2018-04-27T00:54:19.988Z,13.05
2018-04-27T00:55:19.711Z,13.04
2018-04-27T00:56:19.713Z,13.05
2018-04-27T00:57:19.748Z,13.09
2018-04-27T00:58:20.031Z,13.05
2018-04-27T00:59:19.775Z,13.05
2018-04-27T01:00:20.056Z,13.09
2018-04-27T01:01:19.824Z,13.04
2018-04-27T01:02:19.817Z,13.08
2018-04-27T01:03:20.137Z,13.08
2018-04-27T01:04:19.854Z,13.11
2018-04-27T01:05:19.876Z,13.04
2018-04-27T01:06:19.601Z,13.04
2018-04-27T01:07:19.898Z,13
2018-04-27T01:08:19.932Z,13
2018-04-27T01:09:19.949Z,12.98
2018-04-27T01:10:19.957Z,13
2018-04-27T01:11:19.974Z,13.03
2018-04-27T01:12:19.986Z,12.95
2018-04-27T01:13:20.315Z,12.94
2018-04-27T01:14:20.044Z,13
2018-04-27T01:15:20.070Z,12.94
2018-04-27T01:16:20.070Z,12.93
2018-04-27T01:17:20.371Z,12.95
2018-04-27T01:18:20.097Z,12.93
2018-04-27T01:19:20.416Z,12.86
2018-04-27T01:20:20.418Z,12.97
2018-04-27T01:21:20.457Z,12.86
2018-04-27T01:22:20.166Z,12.9
2018-04-27T01:23:20.180Z,12.83
2018-04-27T01:24:20.202Z,12.86
2018-04-27T01:25:20.525Z,12.86
2018-04-27T01:26:20.552Z,12.85
2018-04-27T01:27:20.512Z,12.83
2018-04-27T01:28:20.281Z,12.85
2018-04-27T01:29:20.001Z,12.83
2018-04-27T01:30:20.666Z,12.83
2018-04-27T01:31:20.327Z,12.79
2018-04-27T01:32:20.627Z,12.86
2018-04-27T01:33:20.678Z,12.83
2018-04-27T01:34:20.674Z,12.85
2018-04-27T01:35:20.680Z,12.85
2018-04-27T01:36:20.694Z,12.82
2018-04-27T01:37:20.433Z,12.8
2018-04-27T01:38:20.448Z,12.82
2018-04-27T01:39:20.465Z,12.85
2018-04-27T01:40:20.764Z,12.82
2018-04-27T01:41:20.773Z,12.82
2018-04-27T01:42:20.530Z,12.82
2018-04-27T01:43:20.873Z,12.83
2018-04-27T01:44:20.552Z,12.85
2018-04-27T01:45:20.868Z,12.78
2018-04-27T01:46:20.579Z,12.76
2018-04-27T01:47:20.890Z,12.82
2018-04-27T01:48:20.913Z,12.85
2018-04-27T01:49:20.910Z,12.78
2018-04-27T01:50:20.939Z,12.76
2018-04-27T01:51:20.955Z,12.79
2018-04-27T01:52:20.963Z,12.78
2018-04-27T01:53:20.714Z,12.8
2018-04-27T01:54:21.025Z,12.79
2018-04-27T01:55:21.025Z,12.75
2018-04-27T01:56:21.052Z,12.79
2018-04-27T01:57:21.096Z,12.78
2018-04-27T01:58:20.805Z,12.78
2018-04-27T01:59:20.813Z,12.78
2018-04-27T02:00:21.115Z,12.76
2018-04-27T02:01:21.131Z,12.76
2018-04-27T02:02:21.141Z,12.72
2018-04-27T02:03:21.177Z,12.76
2018-04-27T02:04:21.178Z,12.76
2018-04-27T02:05:20.625Z,12.82
2018-04-27T02:06:20.926Z,12.75
2018-04-27T02:07:20.948Z,12.78
2018-04-27T02:08:21.253Z,12.78
2018-04-27T02:09:21.263Z,12.8
2018-04-27T02:10:20.980Z,12.78
2018-04-27T02:11:21.300Z,12.75
2018-04-27T02:12:21.275Z,12.8
2018-04-27T02:13:21.328Z,12.76
2018-04-27T02:14:21.031Z,12.8
2018-04-27T02:15:21.344Z,12.78
2018-04-27T02:16:21.347Z,12.76
2018-04-27T02:17:21.362Z,12.8
2018-04-27T02:18:21.170Z,12.76
2018-04-27T02:19:21.103Z,12.72
2018-04-27T02:20:21.123Z,12.79
2018-04-27T02:21:20.878Z,12.79
2018-04-27T02:22:21.535Z,12.79
2018-04-27T02:23:21.474Z,12.73
2018-04-27T02:24:21.506Z,12.8
2018-04-27T02:25:21.521Z,12.76
2018-04-27T02:26:21.510Z,12.78
2018-04-27T02:27:21.252Z,12.78
2018-04-27T02:28:20.988Z,12.82
2018-04-27T02:29:21.564Z,12.76
2018-04-27T02:30:21.021Z,12.8
2018-04-27T02:31:21.331Z,12.76
2018-04-27T02:32:21.631Z,12.73
2018-04-27T02:33:21.622Z,12.75
2018-04-27T02:34:21.653Z,12.72
2018-04-27T02:35:21.383Z,12.75
2018-04-27T02:36:21.773Z,12.7
2018-04-27T02:37:21.736Z,12.72
2018-04-27T02:38:21.710Z,12.76
2018-04-27T02:39:21.469Z,12.72
2018-04-27T02:40:21.851Z,12.62
2018-04-27T02:41:21.792Z,12.65
2018-04-27T02:42:21.791Z,12.73
2018-04-27T02:43:21.522Z,12.73
2018-04-27T02:44:21.558Z,12.64
2018-04-27T02:45:21.852Z,12.7
2018-04-27T02:46:21.572Z,12.67
2018-04-27T02:47:21.882Z,12.67
2018-04-27T02:48:21.600Z,12.7
2018-04-27T02:49:21.907Z,12.62
2018-04-27T02:50:21.922Z,12.64
2018-04-27T02:51:21.658Z,12.58
2018-04-27T02:52:21.958Z,12.64
2018-04-27T02:53:21.702Z,12.67
2018-04-27T02:54:22.005Z,12.65
2018-04-27T02:55:22.051Z,12.62
2018-04-27T02:56:22.058Z,12.6
2018-04-27T02:57:21.477Z,12.65
2018-04-27T02:58:22.067Z,12.65
2018-04-27T02:59:21.808Z,12.57
2018-04-27T03:00:22.094Z,12.64
2018-04-27T03:01:22.128Z,12.54
2018-04-27T03:02:22.135Z,12.53
2018-04-27T03:03:22.138Z,12.45
2018-04-27T03:04:22.220Z,12.47
2018-04-27T03:05:22.198Z,12.47
2018-04-27T03:06:21.931Z,12.55
2018-04-27T03:07:22.198Z,12.53
2018-04-27T03:08:22.263Z,12.53
2018-04-27T03:09:22.264Z,12.43
2018-04-27T03:10:22.261Z,12.49
2018-04-27T03:11:22.279Z,12.47
2018-04-27T03:12:22.047Z,12.43
2018-04-27T03:13:22.305Z,12.36
2018-04-27T03:14:22.383Z,12.47
2018-04-27T03:15:22.407Z,12.42
2018-04-27T03:16:22.079Z,12.39
2018-04-27T03:17:22.111Z,12.42
2018-04-27T03:18:22.401Z,12.4
2018-04-27T03:19:22.146Z,12.39
2018-04-27T03:20:22.415Z,12.42
2018-04-27T03:21:22.456Z,12.32
2018-04-27T03:22:22.484Z,12.46
2018-04-27T03:23:22.490Z,12.43
2018-04-27T03:24:22.230Z,12.39
2018-04-27T03:25:22.525Z,12.31
2018-04-27T03:26:22.522Z,12.45
2018-04-27T03:27:22.252Z,12.4
2018-04-27T03:28:22.565Z,12.32
2018-04-27T03:29:22.635Z,12.37
2018-04-27T03:30:22.620Z,12.35
2018-04-27T03:31:22.617Z,12.37
2018-04-27T03:32:22.644Z,12.4
2018-04-27T03:33:22.666Z,12.35
2018-04-27T03:34:22.784Z,12.29
2018-04-27T03:35:22.387Z,12.28
2018-04-27T03:36:22.692Z,12.31
2018-04-27T03:37:22.437Z,12.28
2018-04-27T03:38:22.455Z,12.35
2018-04-27T03:39:22.519Z,12.32
2018-04-27T03:40:22.201Z,12.29
2018-04-27T03:41:22.780Z,12.24
2018-04-27T03:42:22.517Z,12.21
2018-04-27T03:43:22.548Z,12.27
2018-04-27T03:44:22.817Z,12.24
2018-04-27T03:45:23.051Z,12.22
2018-04-27T03:46:22.605Z,12.24
2018-04-27T03:47:22.588Z,12.27
2018-04-27T03:48:22.634Z,12.17
2018-04-27T03:49:22.928Z,12.22
2018-04-27T03:50:22.929Z,12.17
2018-04-27T03:51:22.972Z,12.15
2018-04-27T03:52:22.976Z,12.21
2018-04-27T03:53:22.992Z,12.12
2018-04-27T03:54:23.011Z,12.17
2018-04-27T03:55:23.004Z,12.17
2018-04-27T03:56:23.038Z,12.15
2018-04-27T03:57:23.048Z,12.2
2018-04-27T03:58:23.080Z,12.09
2018-04-27T03:59:22.818Z,12.06
2018-04-27T04:00:23.101Z,12.17
2018-04-27T04:01:23.116Z,12.07
2018-04-27T04:02:22.864Z,12.03
2018-04-27T04:03:22.590Z,12.03
2018-04-27T04:04:23.182Z,12.06
2018-04-27T04:05:23.186Z,12.06
2018-04-27T04:06:22.910Z,12.06
2018-04-27T04:07:23.204Z,12.1
2018-04-27T04:08:23.215Z,12.12
2018-04-27T04:09:23.256Z,12.1
2018-04-27T04:10:22.999Z,12.02
2018-04-27T04:11:23.299Z,12.09
2018-04-27T04:12:23.286Z,12.07
2018-04-27T04:13:23.327Z,12.1
2018-04-27T04:14:23.328Z,12.09
2018-04-27T04:15:23.339Z,12.09
2018-04-27T04:16:23.387Z,12.06
2018-04-27T04:17:23.380Z,12.12
2018-04-27T04:18:23.102Z,12.06
2018-04-27T04:19:23.193Z,12.07
2018-04-27T04:20:23.160Z,12.07
2018-04-27T04:21:23.453Z,12
2018-04-27T04:22:23.450Z,12.04
2018-04-27T04:23:23.484Z,12.02
2018-04-27T04:24:23.537Z,12.06
2018-04-27T04:25:23.518Z,12.1
2018-04-27T04:26:23.516Z,11.99
2018-04-27T04:27:23.534Z,11.99
2018-04-27T04:28:23.580Z,12.03
2018-04-27T04:29:23.290Z,12.02
2018-04-27T04:30:23.309Z,12
2018-04-27T04:31:23.626Z,12.04
2018-04-27T04:32:23.900Z,12.02
2018-04-27T04:33:23.663Z,12.03
2018-04-27T04:34:23.381Z,12.06
2018-04-27T04:35:23.678Z,12.03
2018-04-27T04:36:23.701Z,11.95
2018-04-27T04:37:23.442Z,12.03
2018-04-27T04:38:23.860Z,12.06
2018-04-27T04:39:23.756Z,12.06
2018-04-27T04:40:23.756Z,11.97
2018-04-27T04:41:23.779Z,12
2018-04-27T04:42:23.527Z,12.09
2018-04-27T04:43:23.862Z,12.09
2018-04-27T04:44:23.608Z,12.13
2018-04-27T04:45:23.827Z,12.06
2018-04-27T04:46:23.841Z,12.09
2018-04-27T04:47:23.862Z,11.99
2018-04-27T04:48:23.924Z,12
2018-04-27T04:49:23.907Z,11.99
2018-04-27T04:50:23.923Z,12
2018-04-27T04:51:23.941Z,11.95
2018-04-27T04:52:24.137Z,11.97
2018-04-27T04:53:23.979Z,12.02
2018-04-27T04:54:23.707Z,11.95
2018-04-27T04:55:23.444Z,11.99
2018-04-27T04:56:24.029Z,12.12
2018-04-27T04:57:24.063Z,12.06
2018-04-27T04:58:23.514Z,12.1
2018-04-27T04:59:24.125Z,12.03
2018-04-27T05:00:23.813Z,12.06
2018-04-27T05:01:24.091Z,12.04
2018-04-27T05:02:23.864Z,12.07
2018-04-27T05:03:24.220Z,12.07
2018-04-27T05:04:24.159Z,12.13
2018-04-27T05:05:24.170Z,12.04
2018-04-27T05:06:23.909Z,12.1
2018-04-27T05:07:24.223Z,12.03
2018-04-27T05:08:24.424Z,12.04
2018-04-27T05:09:24.240Z,12.07
2018-04-27T05:10:24.253Z,12.04
2018-04-27T05:11:23.988Z,12.12
2018-04-27T05:12:24.296Z,12.06
2018-04-27T05:13:24.305Z,12.13
2018-04-27T05:14:24.323Z,12.1
2018-04-27T05:15:24.335Z,12.06
2018-04-27T05:16:24.058Z,12.1
2018-04-27T05:17:24.369Z,12.03
2018-04-27T05:18:24.403Z,12.1
2018-04-27T05:19:24.405Z,12.09
2018-04-27T05:20:24.436Z,12.09
2018-04-27T05:21:24.147Z,12.06
2018-04-27T05:22:24.443Z,12.1
2018-04-27T05:23:24.513Z,12.06
2018-04-27T05:24:24.786Z,12.06
2018-04-27T05:25:24.498Z,12.04
2018-04-27T05:26:24.517Z,12.03
2018-04-27T05:27:24.550Z,12.17
2018-04-27T05:28:24.564Z,12.06
2018-04-27T05:29:24.557Z,12.07
2018-04-27T05:30:24.287Z,12.17
2018-04-27T05:31:24.598Z,12.2
2018-04-27T05:32:24.611Z,12.1
2018-04-27T05:33:24.652Z,12.12
2018-04-27T05:34:24.374Z,12.13
2018-04-27T05:35:24.649Z,12.13
2018-04-27T05:36:24.446Z,12.15
2018-04-27T05:37:24.689Z,12.18
2018-04-27T05:38:24.724Z,12.18
2018-04-27T05:39:24.468Z,12.18
2018-04-27T05:40:24.750Z,12.17
2018-04-27T05:41:24.553Z,12.27
2018-04-27T05:42:24.496Z,12.29
2018-04-27T05:43:24.517Z,12.22
2018-04-27T05:44:24.809Z,12.21
2018-04-27T05:45:24.819Z,12.27
2018-04-27T05:46:24.857Z,12.28
2018-04-27T05:47:24.322Z,12.28
2018-04-27T05:48:25.187Z,12.25
2018-04-27T05:49:24.379Z,12.25
2018-04-27T05:50:24.917Z,12.28
2018-04-27T05:51:24.931Z,12.25
2018-04-27T05:52:24.964Z,12.35
2018-04-27T05:53:24.978Z,12.35
2018-04-27T05:54:24.992Z,12.39
2018-04-27T05:55:24.745Z,12.39
2018-04-27T05:56:24.990Z,12.42
2018-04-27T05:57:24.735Z,12.37
2018-04-27T05:58:25.058Z,12.45
2018-04-27T05:59:25.065Z,12.42
2018-04-27T06:00:24.803Z,12.47
2018-04-27T06:01:24.814Z,12.39
2018-04-27T06:02:24.843Z,12.5
2018-04-27T06:03:24.572Z,12.53
2018-04-27T06:04:24.858Z,12.54
2018-04-27T06:05:24.594Z,12.65
2018-04-27T06:06:24.895Z,12.65
2018-04-27T06:07:25.193Z,12.65
2018-04-27T06:08:24.938Z,12.62
2018-04-27T06:09:25.251Z,12.65
2018-04-27T06:10:25.265Z,12.65
2018-04-27T06:11:25.242Z,12.73
2018-04-27T06:12:25.261Z,12.68
2018-04-27T06:13:25.288Z,12.75
2018-04-27T06:14:25.309Z,12.76
2018-04-27T06:15:25.045Z,12.82
2018-04-27T06:16:25.353Z,12.85
2018-04-27T06:17:25.080Z,12.95
2018-04-27T06:18:25.099Z,12.93
2018-04-27T06:19:25.395Z,12.93
2018-04-27T06:20:25.490Z,12.98
2018-04-27T06:21:25.504Z,13.05
2018-04-27T06:22:25.437Z,12.97
2018-04-27T06:23:25.464Z,12.93
2018-04-27T06:24:25.509Z,13.05
2018-04-27T06:25:25.491Z,13.09
2018-04-27T06:26:25.527Z,13.12
2018-04-27T06:27:25.516Z,13.16
2018-04-27T06:28:25.557Z,13.19
2018-04-27T06:29:25.568Z,13.18
2018-04-27T06:30:25.279Z,13.22
2018-04-27T06:31:25.577Z,13.2
2018-04-27T06:32:25.341Z,13.38
2018-04-27T06:33:25.614Z,13.31
2018-04-27T06:34:25.383Z,13.3
2018-04-27T06:35:25.658Z,13.42
2018-04-27T06:36:25.392Z,13.47
2018-04-27T06:37:25.422Z,13.42
2018-04-27T06:38:25.149Z,13.62
2018-04-27T06:39:25.524Z,13.6
2018-04-27T06:40:25.718Z,13.6
2018-04-27T06:41:25.740Z,13.65
2018-04-27T06:42:25.780Z,13.67
2018-04-27T06:43:25.516Z,13.75
2018-04-27T06:44:25.826Z,13.74
2018-04-27T06:45:25.546Z,13.77
2018-04-27T06:46:25.842Z,13.81
2018-04-27T06:47:25.847Z,13.92
2018-04-27T06:48:25.314Z,13.85
2018-04-27T06:49:25.607Z,13.9
2018-04-27T06:50:25.924Z,14.03
2018-04-27T06:51:25.365Z,14.05
2018-04-27T06:52:25.381Z,14
2018-04-27T06:53:25.969Z,14.1
2018-04-27T06:54:25.703Z,14.11
2018-04-27T06:55:25.982Z,14.08
2018-04-27T06:56:26.023Z,14.18
2018-04-27T06:57:25.738Z,14.23
2018-04-27T06:58:26.055Z,14.26
2018-04-27T06:59:26.059Z,14.28
2018-04-27T07:00:25.820Z,14.35
2018-04-27T07:01:25.830Z,14.48
2018-04-27T07:02:25.557Z,14.44
2018-04-27T07:03:26.153Z,14.53
2018-04-27T07:04:26.137Z,14.58
2018-04-27T07:05:26.413Z,14.62
2018-04-27T07:06:26.177Z,14.68
2018-04-27T07:07:26.189Z,14.77
2018-04-27T07:08:25.946Z,14.79
2018-04-27T07:09:26.247Z,14.77
2018-04-27T07:10:25.694Z,14.82
2018-04-27T07:11:26.001Z,14.96
2018-04-27T07:12:26.019Z,15.03
2018-04-27T07:13:26.308Z,15
2018-04-27T07:14:26.344Z,15.02
2018-04-27T07:15:26.361Z,15.11
2018-04-27T07:16:26.355Z,15.06
2018-04-27T07:17:26.367Z,15.15
2018-04-27T07:18:26.383Z,15.19
2018-04-27T07:19:26.119Z,15.31
2018-04-27T07:20:26.446Z,15.29
2018-04-27T07:21:26.438Z,15.36
2018-04-27T07:22:26.467Z,15.4
2018-04-27T07:23:26.206Z,15.43
2018-04-27T07:24:26.505Z,15.44
2018-04-27T07:25:26.233Z,15.57
2018-04-27T07:26:26.537Z,15.51
2018-04-27T07:27:26.543Z,15.61
2018-04-27T07:28:26.590Z,15.62
2018-04-27T07:29:26.312Z,15.67
2018-04-27T07:30:26.345Z,15.59
2018-04-27T07:31:26.636Z,15.73
2018-04-27T07:32:26.081Z,15.76
2018-04-27T07:33:26.401Z,15.77
2018-04-27T07:34:26.403Z,15.84
2018-04-27T07:35:26.415Z,15.95
2018-04-27T07:36:26.437Z,15.95
2018-04-27T07:37:26.469Z,15.91
2018-04-27T07:38:26.742Z,15.97
2018-04-27T07:39:26.762Z,15.98
2018-04-27T07:40:26.494Z,16
2018-04-27T07:41:26.812Z,16.04
2018-04-27T07:42:26.544Z,16.09
2018-04-27T07:43:26.850Z,16.12
2018-04-27T07:44:26.593Z,16.12
2018-04-27T07:45:27.047Z,16.23
2018-04-27T07:46:26.631Z,16.23
2018-04-27T07:47:26.644Z,16.24
2018-04-27T07:48:26.936Z,16.35
2018-04-27T07:49:26.966Z,16.39
2018-04-27T07:50:26.708Z,16.38
2018-04-27T07:51:26.992Z,16.43
2018-04-27T07:52:26.720Z,16.54
2018-04-27T07:53:26.728Z,16.53
2018-04-27T07:54:27.035Z,16.57
2018-04-27T07:55:26.940Z,16.6
2018-04-27T07:56:26.802Z,16.66
2018-04-27T07:57:27.120Z,16.71
2018-04-27T07:58:27.136Z,16.71
2018-04-27T07:59:26.850Z,16.76
2018-04-27T08:00:26.930Z,16.87
2018-04-27T08:01:27.179Z,16.83
2018-04-27T08:02:27.359Z,16.9
2018-04-27T08:03:26.926Z,16.91
2018-04-27T08:04:26.662Z,16.96
2018-04-27T08:05:27.309Z,17.02
2018-04-27T08:06:27.263Z,17.02
2018-04-27T08:07:27.267Z,17.06
2018-04-27T08:08:27.033Z,17.05
2018-04-27T08:09:27.037Z,17.11
2018-04-27T08:10:27.387Z,17.16
2018-04-27T08:11:27.117Z,17.16
2018-04-27T08:12:27.399Z,17.26
2018-04-27T08:13:27.112Z,17.26
2018-04-27T08:14:27.149Z,17.22
2018-04-27T08:15:27.141Z,17.34
2018-04-27T08:16:27.469Z,17.31
2018-04-27T08:17:27.201Z,17.39
2018-04-27T08:18:27.214Z,17.34
2018-04-27T08:19:27.235Z,17.31
2018-04-27T08:20:27.537Z,17.49
2018-04-27T08:21:27.544Z,17.48
2018-04-27T08:22:27.558Z,17.49
2018-04-27T08:23:27.289Z,17.6
2018-04-27T08:24:27.638Z,17.54
2018-04-27T08:25:27.727Z,17.64
2018-04-27T08:26:27.374Z,17.74
2018-04-27T08:27:27.652Z,17.72
2018-04-27T08:28:27.679Z,17.79
2018-04-27T08:29:27.693Z,17.83
2018-04-27T08:30:27.740Z,17.89
2018-04-27T08:31:28.241Z,17.92
2018-04-27T08:32:27.488Z,18.05
2018-04-27T08:33:27.772Z,18.1
2018-04-27T08:34:27.500Z,18.04
2018-04-27T08:35:27.863Z,18.13
2018-04-27T08:36:27.269Z,18.23
2018-04-27T08:37:27.847Z,18.34
2018-04-27T08:38:27.879Z,18.41
2018-04-27T08:39:27.323Z,18.38
2018-04-27T08:40:27.976Z,18.47
2018-04-27T08:41:27.941Z,18.56
2018-04-27T08:42:27.972Z,18.6
2018-04-27T08:43:27.966Z,18.59
2018-04-27T08:44:27.728Z,18.7
2018-04-27T08:45:28.023Z,18.75
2018-04-27T08:46:28.050Z,18.86
2018-04-27T08:47:28.047Z,18.89
2018-04-27T08:48:28.062Z,18.86
2018-04-27T08:49:27.825Z,18.89
2018-04-27T08:50:28.104Z,18.9
2018-04-27T08:51:27.573Z,19.08
2018-04-27T08:52:28.172Z,19.14
2018-04-27T08:53:28.195Z,19.11
2018-04-27T08:54:28.187Z,19.21
2018-04-27T08:55:28.195Z,19.27
2018-04-27T08:56:28.241Z,19.26
2018-04-27T08:57:28.251Z,19.44
2018-04-27T08:58:28.278Z,19.39
2018-04-27T08:59:28.002Z,19.44
2018-04-27T09:00:28.300Z,19.52
2018-04-27T09:01:28.061Z,19.66
2018-04-27T09:02:28.078Z,19.63
2018-04-27T09:03:27.812Z,19.56
2018-04-27T09:04:28.105Z,19.62
2018-04-27T09:05:28.407Z,19.64
2018-04-27T09:06:28.651Z,19.69
2018-04-27T09:07:28.156Z,19.81
2018-04-27T09:08:28.475Z,19.74
2018-04-27T09:09:28.483Z,19.81
2018-04-27T09:10:28.488Z,19.84
2018-04-27T09:11:28.538Z,19.91
2018-04-27T09:12:28.568Z,19.96
2018-04-27T09:13:28.274Z,19.99
2018-04-27T09:14:28.289Z,20.03
2018-04-27T09:15:28.602Z,20.03
2018-04-27T09:16:28.063Z,20.14
2018-04-27T09:17:28.379Z,20.11
2018-04-27T09:18:28.678Z,20.16
2018-04-27T09:19:28.708Z,20.29
2018-04-27T09:20:28.416Z,20.28
2018-04-27T09:21:28.450Z,20.39
2018-04-27T09:22:28.763Z,20.32
2018-04-27T09:23:28.481Z,20.5
2018-04-27T09:24:28.514Z,20.47
2018-04-27T09:25:28.515Z,20.47
2018-04-27T09:26:28.564Z,20.62
2018-04-27T09:27:28.836Z,20.63
2018-04-27T09:28:28.906Z,20.74
2018-04-27T09:29:28.892Z,20.8
2018-04-27T09:30:28.902Z,20.85
2018-04-27T09:31:28.672Z,20.93
2018-04-27T09:32:29.021Z,20.92
2018-04-27T09:33:28.704Z,21.06
2018-04-27T09:34:28.727Z,20.97
2018-04-27T09:35:28.741Z,21.03
2018-04-27T09:36:29.035Z,21.05
2018-04-27T09:37:29.053Z,21.11
2018-04-27T09:38:29.080Z,21.22
2018-04-27T09:39:28.811Z,21.25
2018-04-27T09:40:28.841Z,21.25
2018-04-27T09:41:29.143Z,21.32
2018-04-27T09:42:28.879Z,21.32
2018-04-27T09:43:29.187Z,21.4
2018-04-27T09:44:28.927Z,21.43
2018-04-27T09:45:28.946Z,21.37
2018-04-27T09:46:28.961Z,21.51
2018-04-27T09:47:28.983Z,21.54
2018-04-27T09:48:29.284Z,21.61
2018-04-27T09:49:29.051Z,21.73
2018-04-27T09:50:29.064Z,21.8
2018-04-27T09:51:29.078Z,21.83
2018-04-27T09:52:29.108Z,21.82
2018-04-27T09:53:29.119Z,21.89
2018-04-27T09:54:29.164Z,21.99
2018-04-27T09:55:29.455Z,22.04
2018-04-27T09:56:29.168Z,22.02
2018-04-27T09:57:29.321Z,22.15
2018-04-27T09:58:29.218Z,22.13
2018-04-27T09:59:29.521Z,22.17
2018-04-27T10:00:29.583Z,22.25
2018-04-27T10:01:29.303Z,22.29
2018-04-27T10:02:29.577Z,22.35
2018-04-27T10:03:29.632Z,22.36
2018-04-27T10:04:29.361Z,22.5
2018-04-27T10:05:29.640Z,22.45
2018-04-27T10:06:29.404Z,22.59
2018-04-27T10:07:29.412Z,22.57
2018-04-27T10:08:29.707Z,22.7
2018-04-27T10:09:29.462Z,22.72
2018-04-27T10:10:29.197Z,22.8
2018-04-27T10:11:29.770Z,22.93
2018-04-27T10:12:29.790Z,22.88
2018-04-27T10:13:29.558Z,22.88
2018-04-27T10:14:29.567Z,23.02
2018-04-27T10:15:29.871Z,23.03
2018-04-27T10:16:29.632Z,23.08
2018-04-27T10:17:29.918Z,23.09
2018-04-27T10:18:29.961Z,23.18
2018-04-27T10:19:29.668Z,23.24
2018-04-27T10:20:29.918Z,23.23
2018-04-27T10:21:29.730Z,23.31
2018-04-27T10:22:30.037Z,23.39
2018-04-27T10:23:30.107Z,23.41
2018-04-27T10:24:29.812Z,23.44
2018-04-27T10:25:30.108Z,23.55
2018-04-27T10:26:29.846Z,23.61
2018-04-27T10:27:30.147Z,23.71
2018-04-27T10:28:30.194Z,23.69
2018-04-27T10:29:30.188Z,23.78
2018-04-27T10:30:29.947Z,23.84
2018-04-27T10:31:29.951Z,23.87
2018-04-27T10:32:30.249Z,23.96
2018-04-27T10:33:30.008Z,24.03
2018-04-27T10:34:30.021Z,24.13
2018-04-27T10:35:30.039Z,24.14
2018-04-27T10:36:30.179Z,24.23
2018-04-27T10:37:30.373Z,24.28
2018-04-27T10:38:30.403Z,24.35
2018-04-27T10:39:30.404Z,24.39
2018-04-27T10:40:30.147Z,24.42
2018-04-27T10:41:30.195Z,24.5
2018-04-27T10:42:30.219Z,24.5
2018-04-27T10:43:30.304Z,24.51
2018-04-27T10:44:30.242Z,24.63
2018-04-27T10:45:30.540Z,24.58
2018-04-27T10:46:30.585Z,24.6
2018-04-27T10:47:30.312Z,24.68
2018-04-27T10:48:30.349Z,24.7
2018-04-27T10:49:30.664Z,24.7
2018-04-27T10:50:30.675Z,24.77
2018-04-27T10:51:30.470Z,24.88
2018-04-27T10:52:30.428Z,24.73
2018-04-27T10:53:30.444Z,24.88
2018-04-27T10:54:30.210Z,24.84
2018-04-27T10:55:30.508Z,24.86
2018-04-27T10:56:30.873Z,25.03
2018-04-27T10:57:30.847Z,24.96
2018-04-27T10:58:30.564Z,24.95
2018-04-27T10:59:30.607Z,24.98
2018-04-27T11:00:30.889Z,25.06
2018-04-27T11:01:31.029Z,25.01
2018-04-27T11:02:30.947Z,25.08
2018-04-27T11:03:31.210Z,25.11
2018-04-27T11:04:30.717Z,25.1
2018-04-27T11:05:30.738Z,25.17
2018-04-27T11:06:31.043Z,25.18
2018-04-27T11:07:30.783Z,25.23
2018-04-27T11:08:30.838Z,25.29
2018-04-27T11:09:30.852Z,25.33
2018-04-27T11:10:30.868Z,25.43
2018-04-27T11:11:30.959Z,25.35
2018-04-27T11:12:30.923Z,25.32
2018-04-27T11:13:30.930Z,25.46
2018-04-27T11:14:31.257Z,25.46
2018-04-27T11:15:30.995Z,25.47
2018-04-27T11:16:31.133Z,25.54
2018-04-27T11:17:31.334Z,25.55
2018-04-27T11:18:31.321Z,25.51
2018-04-27T11:19:31.089Z,25.59
2018-04-27T11:20:31.392Z,25.54
2018-04-27T11:21:31.139Z,25.59
2018-04-27T11:22:31.167Z,25.55
2018-04-27T11:23:30.903Z,25.54
2018-04-27T11:24:31.211Z,25.6
2018-04-27T11:25:31.516Z,25.6
2018-04-27T11:26:31.538Z,25.6
2018-04-27T11:27:31.280Z,25.72
2018-04-27T11:28:31.588Z,25.7
2018-04-27T11:29:31.636Z,25.7
2018-04-27T11:30:31.730Z,25.7
2018-04-27T11:31:31.650Z,25.65
2018-04-27T11:32:31.670Z,25.75
2018-04-27T11:33:31.433Z,25.83
2018-04-27T11:34:31.726Z,25.83
2018-04-27T11:35:31.776Z,25.84
2018-04-27T11:36:31.508Z,25.85
2018-04-27T11:37:31.519Z,25.93
2018-04-27T11:38:31.567Z,25.95
2018-04-27T11:39:31.590Z,25.96
2018-04-27T11:40:31.890Z,25.96
2018-04-27T11:41:31.909Z,26.07
2018-04-27T11:42:31.937Z,26.1
2018-04-27T11:43:31.985Z,26.18
2018-04-27T11:44:31.998Z,26.18
2018-04-27T11:45:32.008Z,26.19
2018-04-27T11:46:32.038Z,26.21
2018-04-27T11:47:32.062Z,26.31
2018-04-27T11:48:32.092Z,26.26
2018-04-27T11:49:31.828Z,26.34
2018-04-27T11:50:32.145Z,26.36
2018-04-27T11:51:32.208Z,26.37
2018-04-27T11:52:31.898Z,26.38
2018-04-27T11:53:32.202Z,26.51
2018-04-27T11:54:32.250Z,26.45
2018-04-27T11:55:32.260Z,26.58
2018-04-27T11:56:32.288Z,26.58
2018-04-27T11:57:32.348Z,26.59
2018-04-27T11:58:32.061Z,26.66
2018-04-27T11:59:32.388Z,26.68
2018-04-27T12:00:32.105Z,26.65
2018-04-27T12:01:32.149Z,26.75
2018-04-27T12:02:32.457Z,26.77
2018-04-27T12:03:32.466Z,26.77
2018-04-27T12:04:32.477Z,26.88
2018-04-27T12:05:32.549Z,26.78
2018-04-27T12:06:31.979Z,26.77
2018-04-27T12:07:32.567Z,26.84
2018-04-27T12:08:32.593Z,26.84
2018-04-27T12:09:32.632Z,26.85
2018-04-27T12:10:32.648Z,26.92
2018-04-27T12:11:32.394Z,26.93
2018-04-27T12:12:32.699Z,26.93
2018-04-27T12:13:32.727Z,27
2018-04-27T12:14:32.194Z,27.03
2018-04-27T12:15:32.477Z,26.99
2018-04-27T12:16:32.796Z,27.07
2018-04-27T12:17:32.833Z,27.12
2018-04-27T12:18:32.859Z,27.21
2018-04-27T12:19:32.878Z,27.25
2018-04-27T12:20:32.921Z,27.25
2018-04-27T12:21:34.143Z,27.3
2018-04-27T12:22:32.975Z,27.26
2018-04-27T12:23:33.002Z,27.29
2018-04-27T12:24:32.719Z,27.26
2018-04-27T12:25:32.750Z,27.27
2018-04-27T12:26:33.075Z,27.3
2018-04-27T12:27:33.079Z,27.3
2018-04-27T12:28:33.104Z,27.47
2018-04-27T12:29:33.151Z,27.49
2018-04-27T12:30:33.173Z,27.47
2018-04-27T12:31:33.596Z,27.48
2018-04-27T12:32:33.215Z,27.47
2018-04-27T12:33:32.686Z,27.49
2018-04-27T12:34:33.270Z,27.59
2018-04-27T12:35:33.341Z,27.64
2018-04-27T12:36:33.047Z,27.64
2018-04-27T12:37:33.384Z,27.59
2018-04-27T12:38:33.113Z,27.65
2018-04-27T12:39:33.409Z,27.65
2018-04-27T12:40:33.155Z,27.68
2018-04-27T12:41:33.461Z,27.67
2018-04-27T12:42:33.558Z,27.83
2018-04-27T12:43:33.517Z,27.78
2018-04-27T12:44:33.536Z,27.87
2018-04-27T12:45:33.295Z,27.87
2018-04-27T12:46:33.313Z,27.86
2018-04-27T12:47:33.632Z,28
2018-04-27T12:48:33.092Z,28.01
2018-04-27T12:49:33.390Z,28
2018-04-27T12:50:33.679Z,27.96
2018-04-27T12:51:33.739Z,28
2018-04-27T12:52:33.747Z,28
2018-04-27T12:53:33.771Z,28.1
2018-04-27T12:54:33.790Z,28.11
2018-04-27T12:55:33.829Z,28.15
2018-04-27T12:56:33.645Z,28.19